Аэропорт: Елизово. Петропавловск-Камчатский

ICAO: UHPP

METAR:
2020-08-09 22:00:00
UHPP 092200Z VRB01MPS 9999 NSC 14/11 Q1007 R34L/CLRD70 NOSIG RMK MT OBSC QFE752/1002
METAR:
2020-08-09 19:39:00
TAF UHPP 091939Z 0921/1103 17003G12MPS 9999 BKN030CB TEMPO 1002/1010 -SHRA BKN015CB TEMPO 1010/1022 0700 FG VV002